Ventura — V2GM2 — position and weather

sailwx.info

Track history (hours):
 
Tides and Currents Weather Stations Pressure Air Temp Water Temp Dewpoint Dewpoint Depression Visibility Wind Speed Wind Dir Waves Ship Positions

Ventura

Last reported at 2018-Jun-18 15:29 UTC. Time now 2018-Jun-18 15:38 UTC.
Position N 53°44' E 008°14'.

Length 106 m; draft 6.4 m.

Type: Cargo ship. MMSI: 305994000.

Date/timePositionNaut miles runAvg speedWind from/ knotsBaromVisibWave heightAir tempDewpointWater temp
2018-Jun-18 15:29N 53°44' E 008°14'610.9
2018-Jun-18 14:58N 53°48' E 008°07'510.9
2018-Jun-18 14:31N 53°51' E 008°00'7 0.7
2018-Jun-18 03:57N 53°54' E 007°49'0 0.1
2018-Jun-18 01:48N 53°54' E 007°49'0 0.0
2018-Jun-17 18:09N 53°54' E 007°49'0 0.0
2018-Jun-17 18:00N 53°54' E 007°49'0 0.0
2018-Jun-17 17:24N 53°54' E 007°49'0 0.0
2018-Jun-17 16:57N 53°54' E 007°49'0 0.1
2018-Jun-17 15:15N 53°54' E 007°49'0 0.1
2018-Jun-17 14:57N 53°54' E 007°49'0 0.0
2018-Jun-17 03:12N 53°55' E 007°49'0 0.2
2018-Jun-17 02:54N 53°54' E 007°49'0 0.1
2018-Jun-17 02:18N 53°54' E 007°49'0 0.0
2018-Jun-17 01:54N 53°54' E 007°49'0 0.1
2018-Jun-17 01:27N 53°54' E 007°49'0 0.0
2018-Jun-17 00:57N 53°54' E 007°49'0 0.0
2018-Jun-17 00:24N 53°54' E 007°49'73 3.0
2018-Jun-16 00:28N 53°38' E 005°50'4 8.2
2018-Jun-16 00:00N 53°37' E 005°44'4 8.4
2018-Jun-15 23:31N 53°36' E 005°37'4 8.7
2018-Jun-15 23:01N 53°34' E 005°30'4 8.8
2018-Jun-15 22:31N 53°33' E 005°23'5 9.0
2018-Jun-15 22:00N 53°31' E 005°15'5 9.4
2018-Jun-15 21:31N 53°30' E 005°08'5 9.5
2018-Jun-15 21:00N 53°28' E 005°01'5 9.5
2018-Jun-15 20:31N 53°26' E 004°53'7 9.8
2018-Jun-15 19:50N 53°24' E 004°43'4 9.7
2018-Jun-15 19:28N 53°20' E 004°40'5 9.8
2018-Jun-15 19:00N 53°16' E 004°37'510.3
2018-Jun-15 18:30N 53°12' E 004°32'510.4
2018-Jun-15 18:01N 53°08' E 004°28'510.4
2018-Jun-15 17:31N 53°03' E 004°23'510.6
2018-Jun-15 17:01N 52°59' E 004°19'510.4
2018-Jun-15 16:30N 52°54' E 004°16'510.3
2018-Jun-15 16:00N 52°49' E 004°12'510.2
2018-Jun-15 15:30N 52°45' E 004°07'510.2
2018-Jun-15 15:00N 52°42' E 004°01'5 9.9
2018-Jun-15 14:30N 52°38' E 003°55'5 9.5
2018-Jun-15 14:00N 52°35' E 003°50'5 9.1
2018-Jun-15 13:30N 52°31' E 003°44'4 8.7
2018-Jun-15 13:00N 52°28' E 003°40'5 8.4
2018-Jun-15 12:22N 52°24' E 003°34'3 8.2
2018-Jun-15 12:01N 52°22' E 003°30'4 7.9
2018-Jun-15 11:29N 52°19' E 003°26'4 7.7
2018-Jun-15 10:58N 52°16' E 003°21'3 7.5
2018-Jun-15 10:30N 52°14' E 003°17'4 7.3
2018-Jun-15 10:00N 52°11' E 003°13'4 7.1
2018-Jun-15 09:29N 52°08' E 003°09'3 7.0
2018-Jun-15 09:00N 52°06' E 003°05'5 7.0
2018-Jun-15 08:16N 52°02' E 002°59'6 7.3
2018-Jun-15 07:30N 51°58' E 002°53'4 7.8
2018-Jun-15 07:00N 51°55' E 002°49'5 8.3
2018-Jun-15 06:26N 51°52' E 002°44'4 8.7
2018-Jun-15 05:59N 51°49' E 002°40'4 9.0
2018-Jun-15 05:30N 51°45' E 002°35'6 9.4
2018-Jun-15 04:55N 51°41' E 002°30'4 9.6
2018-Jun-15 04:30N 51°38' E 002°26'510.0
2018-Jun-15 04:00N 51°34' E 002°21'510.2
2018-Jun-15 03:30N 51°30' E 002°16'510.4
2018-Jun-15 03:00N 51°25' E 002°12'510.4
2018-Jun-15 02:31N 51°21' E 002°09'510.4
2018-Jun-15 02:00N 51°16' E 002°05'510.6
2018-Jun-15 01:30N 51°12' E 001°59'611.3
2018-Jun-15 01:00N 51°09' E 001°52'510.9
2018-Jun-15 00:31N 51°05' E 001°46'3 5.9
2018-Jun-15 00:01N 51°04' E 001°50'3 5.8
2018-Jun-14 23:31N 51°03' E 001°54'4 8.4
2018-Jun-14 23:01N 51°03' E 002°01'5 8.9
2018-Jun-14 22:30N 51°03' E 002°08'6 9.8
2018-Jun-14 21:51N 51°04' E 002°18'2 5.2
2018-Jun-14 21:26N 51°03' E 002°21'1 1.5
2018-Jun-14 20:57N 51°03' E 002°20'3 2.6
2018-Jun-14 19:51N 51°02' E 002°16'0 0.0
2018-Jun-14 19:30N 51°02' E 002°16'0 0.0
2018-Jun-14 19:00N 51°02' E 002°16'0 0.0
2018-Jun-14 18:30N 51°02' E 002°16'0 0.0
2018-Jun-14 17:51N 51°02' E 002°16'0 0.0
2018-Jun-14 17:30N 51°02' E 002°16'0 0.0
2018-Jun-14 17:00N 51°02' E 002°16'0 0.0
2018-Jun-14 16:30N 51°02' E 002°16'0 0.0
2018-Jun-14 16:00N 51°02' E 002°16'0 0.0
2018-Jun-14 15:24N 51°02' E 002°16'0 0.0
2018-Jun-14 14:54N 51°02' E 002°16'0 0.0
2018-Jun-14 14:30N 51°02' E 002°16'0 0.0
2018-Jun-14 13:24N 51°02' E 002°16'0 0.0
2018-Jun-14 13:00N 51°02' E 002°16'0 0.0
2018-Jun-14 12:30N 51°02' E 002°16'0 0.0
2018-Jun-14 10:54N 51°02' E 002°16'0 0.0
2018-Jun-14 10:15N 51°02' E 002°16'0 0.0
2018-Jun-14 09:51N 51°02' E 002°16'0 0.0
2018-Jun-14 09:27N 51°02' E 002°16'0 0.0
2018-Jun-14 08:54N 51°02' E 002°16'0 0.0
2018-Jun-14 08:30N 51°02' E 002°16'0 0.0
2018-Jun-14 07:48N 51°02' E 002°16'0 0.0
2018-Jun-14 07:30N 51°02' E 002°16'0 0.0
2018-Jun-14 07:00N 51°02' E 002°16'0 0.0
2018-Jun-14 06:27N 51°02' E 002°16'1 1.3
2018-Jun-14 06:00N 51°03' E 002°16'3 6.7
2018-Jun-14 05:30N 51°03' E 002°21'0 0.5
2018-Jun-14 05:00N 51°03' E 002°21'3 6.3
2018-Jun-14 04:30N 51°04' E 002°16'510.4
2018-Jun-14 04:00N 51°03' E 002°08'611.2
2018-Jun-14 03:30N 51°02' E 001°59'611.5
2018-Jun-14 03:00N 51°02' E 001°50'3 5.7
2018-Jun-14 02:30N 51°02' E 001°46'3 5.3
2018-Jun-14 02:00N 51°01' E 001°42'3 6.0
2018-Jun-14 01:30N 50°59' E 001°38'3 6.1
2018-Jun-14 01:00N 50°57' E 001°35'3 6.6
2018-Jun-14 00:30N 50°55' E 001°31'4 8.3
2018-Jun-14 00:00N 50°51' E 001°28'5 9.3
2018-Jun-13 23:30N 50°47' E 001°26'5 9.1
2018-Jun-13 23:00N 50°43' E 001°23'612.9
2018-Jun-13 22:30N 50°38' E 001°15'713.3
2018-Jun-13 22:00N 50°33' E 001°08'713.1
2018-Jun-13 21:30N 50°29' E 001°00'713.4
2018-Jun-13 21:00N 50°27' E 000°50'713.7
2018-Jun-13 20:30N 50°25' E 000°40'713.9
2018-Jun-13 20:00N 50°23' E 000°29'1014.0
2018-Jun-13 19:17N 50°20' E 000°14'413.6
2018-Jun-13 19:00N 50°19' E 000°09'713.2
2018-Jun-13 18:30N 50°18' W 000°01'612.7
2018-Jun-13 18:00N 50°17' W 000°11'712.2
2018-Jun-13 17:24N 50°17' W 000°23'511.7
2018-Jun-13 17:00N 50°17' W 000°30'511.1
2018-Jun-13 16:31N 50°16' W 000°39'510.6
2018-Jun-13 16:01N 50°16' W 000°47'5 9.9
2018-Jun-13 15:30N 50°15' W 000°55'5 9.1
2018-Jun-13 15:00N 50°15' W 001°02'4 8.3
2018-Jun-13 14:30N 50°14' W 001°08'4 8.2
2018-Jun-13 14:00N 50°14' W 001°15'4 8.2
2018-Jun-13 13:30N 50°13' W 001°21'4 8.0
2018-Jun-13 13:00N 50°13' W 001°27'4 7.7
2018-Jun-13 12:30N 50°14' W 001°33'4 7.9
2018-Jun-13 12:01N 50°14' W 001°39'4 8.6
2018-Jun-13 11:30N 50°15' W 001°46'5 9.5
2018-Jun-13 11:00N 50°14' W 001°53'2511.7
2018-Jun-13 08:51N 50°14' W 002°33'712.7
2018-Jun-13 08:16N 50°13' W 002°44'312.6
2018-Jun-13 08:00N 50°13' W 002°49'612.7
2018-Jun-13 07:30N 50°12' W 002°59'612.8
2018-Jun-13 07:01N 50°11' W 003°09'612.9
2018-Jun-13 06:30N 50°09' W 003°19'612.7
2018-Jun-13 06:01N 50°08' W 003°28'612.6
2018-Jun-13 05:31N 50°06' W 003°38'612.6
2018-Jun-13 05:01N 50°05' W 003°47'612.4
2018-Jun-13 04:30N 50°03' W 003°57'612.2
2018-Jun-13 04:01N 50°01' W 004°06'612.1
2018-Jun-13 03:30N 49°60' W 004°15'612.0
2018-Jun-13 02:59N 49°58' W 004°24'611.9
2018-Jun-13 02:30N 49°57' W 004°33'56 9.9
2018-Jun-12 20:49N 49°59' W 006°00'413.1
2018-Jun-12 20:29N 50°03' W 005°60'613.1
2018-Jun-12 20:00N 50°10' W 005°60'713.3
2018-Jun-12 19:30N 50°16' W 005°60'121 9.3
2018-Jun-12 06:28N 52°17' W 005°47'3 6.9
2018-Jun-12 06:00N 52°21' W 005°46'25 8.0
2018-Jun-12 02:53N 52°45' W 005°41'4 9.8
2018-Jun-12 02:29N 52°49' W 005°40'610.3
2018-Jun-12 01:57N 52°55' W 005°38'510.7
2018-Jun-12 01:30N 52°59' W 005°37'711.6
2018-Jun-12 00:54N 53°06' W 005°38'511.4
2018-Jun-12 00:30N 53°11' W 005°41'611.1
2018-Jun-11 23:59N 53°16' W 005°44'511.2
2018-Jun-11 23:30N 53°21' W 005°47'26 9.7
2018-Jun-11 20:51N 53°43' W 006°10'3 7.3
2018-Jun-11 20:30N 53°43' W 006°14'2 0.1
2018-Jun-10 08:34N 53°43' W 006°18'0 0.4
2018-Jun-10 08:27N 53°43' W 006°18'2 3.7
2018-Jun-10 08:00N 53°44' W 006°15'2 3.4
2018-Jun-10 07:30N 53°43' W 006°13'1 1.1
2018-Jun-10 07:00N 53°44' W 006°12'0 0.1
2018-Jun-10 06:30N 53°44' W 006°12'0 0.1
2018-Jun-10 06:00N 53°44' W 006°12'0 0.0
2018-Jun-10 05:30N 53°44' W 006°12'0 0.0
2018-Jun-10 05:00N 53°44' W 006°12'0 0.0
2018-Jun-10 04:30N 53°44' W 006°12'0 0.0
2018-Jun-10 04:00N 53°44' W 006°12'0 0.0
2018-Jun-10 03:31N 53°44' W 006°12'0 0.0
2018-Jun-10 03:00N 53°44' W 006°12'0 0.0
2018-Jun-10 02:30N 53°44' W 006°12'0 0.0
2018-Jun-10 02:00N 53°44' W 006°12'0 0.1
2018-Jun-10 01:30N 53°44' W 006°12'0 0.1
2018-Jun-10 01:00N 53°44' W 006°12'0 0.0
2018-Jun-10 00:27N 53°44' W 006°12'0 0.0
2018-Jun-09 23:54N 53°44' W 006°12'0 0.0
2018-Jun-09 23:30N 53°44' W 006°12'0 0.0
2018-Jun-09 23:00N 53°44' W 006°12'0 0.0
2018-Jun-09 22:30N 53°44' W 006°12'0 0.0
2018-Jun-09 22:00N 53°44' W 006°12'0 0.0
2018-Jun-09 21:30N 53°44' W 006°12'0 0.0
2018-Jun-09 21:00N 53°44' W 006°12'0 0.0
2018-Jun-09 20:30N 53°44' W 006°12'0 0.2
2018-Jun-09 19:48N 53°44' W 006°12'0 0.1
2018-Jun-09 19:30N 53°44' W 006°12'0 0.0
2018-Jun-09 19:00N 53°44' W 006°12'0 0.0
2018-Jun-09 18:30N 53°44' W 006°12'0 0.0
2018-Jun-09 17:48N 53°44' W 006°12'0 0.0
2018-Jun-09 17:24N 53°44' W 006°12'0 0.0
2018-Jun-09 17:00N 53°44' W 006°12'0 0.0
2018-Jun-09 16:30N 53°44' W 006°12'0 0.0
2018-Jun-09 16:00N 53°44' W 006°12'0 0.0
2018-Jun-09 15:00N 53°44' W 006°12'0 0.0
2018-Jun-09 14:30N 53°44' W 006°12'0 0.0
2018-Jun-09 14:00N 53°44' W 006°12'0 0.1
2018-Jun-09 13:24N 53°44' W 006°12'0 0.1
2018-Jun-09 13:00N 53°44' W 006°12'0 0.0
2018-Jun-09 12:30N 53°44' W 006°12'0 0.0
2018-Jun-09 11:54N 53°44' W 006°12'0 0.0
2018-Jun-09 11:30N 53°44' W 006°12'0 0.0
2018-Jun-09 11:00N 53°44' W 006°12'0 0.1
2018-Jun-09 10:30N 53°44' W 006°12'0 0.0
2018-Jun-09 10:00N 53°44' W 006°12'0 0.0
2018-Jun-09 09:30N 53°44' W 006°12'0 0.0
2018-Jun-09 09:00N 53°44' W 006°12'0 0.0
2018-Jun-09 08:27N 53°44' W 006°12'0 0.0
2018-Jun-09 08:00N 53°44' W 006°12'0 0.0
2018-Jun-09 07:30N 53°44' W 006°12'0 0.0
2018-Jun-09 07:00N 53°44' W 006°12'0 0.1
2018-Jun-09 06:30N 53°44' W 006°12'0 0.1
2018-Jun-09 06:00N 53°44' W 006°12'0 0.0
2018-Jun-09 05:06N 53°44' W 006°12'0 0.0
2018-Jun-09 04:57N 53°44' W 006°12'0 0.0
2018-Jun-09 04:30N 53°44' W 006°12'0 0.0
2018-Jun-09 04:00N 53°44' W 006°12'0 0.0
2018-Jun-09 03:30N 53°44' W 006°12'0 0.0
2018-Jun-09 03:00N 53°44' W 006°12'0 0.0
2018-Jun-09 02:30N 53°44' W 006°12'0 0.1
2018-Jun-09 02:00N 53°44' W 006°12'0 0.1
2018-Jun-09 01:30N 53°44' W 006°12'0 0.1
2018-Jun-09 01:00N 53°44' W 006°12'0 0.0
2018-Jun-09 00:30N 53°44' W 006°12'0 0.0
2018-Jun-08 23:57N 53°44' W 006°12'0 0.0
2018-Jun-08 23:30N 53°44' W 006°12'0 0.0
2018-Jun-08 23:00N 53°44' W 006°12'0 0.0
2018-Jun-08 22:12N 53°44' W 006°12'0 0.0
2018-Jun-08 22:00N 53°44' W 006°12'0 0.0
2018-Jun-08 21:30N 53°44' W 006°12'0 0.0
2018-Jun-08 20:54N 53°44' W 006°12'0 0.0
2018-Jun-08 20:30N 53°44' W 006°12'0 0.0
2018-Jun-08 20:00N 53°44' W 006°12'0 0.0
2018-Jun-08 19:30N 53°44' W 006°12'0 0.0
2018-Jun-08 19:00N 53°44' W 006°12'0 0.0
2018-Jun-08 18:24N 53°44' W 006°12'0 0.0
2018-Jun-08 18:00N 53°44' W 006°12'0 0.0
2018-Jun-08 17:30N 53°44' W 006°12'0 0.0
2018-Jun-08 16:57N 53°44' W 006°12'  
Track history (hours):
 
Tides and Currents Weather Stations Pressure Air Temp Water Temp Dewpoint Dewpoint Depression Visibility Wind Speed Wind Dir Waves Ship Positions

Ventura

Last reported at 2018-Jun-18 15:29 UTC. Time now 2018-Jun-18 15:38 UTC.
Position N 53°44' E 008°14'.

Length 106 m; draft 6.4 m.

Type: Cargo ship. MMSI: 305994000.

Date/timePositionNaut miles runAvg speedWind from/ knotsBaromVisibWave heightAir tempDewpointWater temp
2018-Jun-18 15:29N 53°44' E 008°14'610.9
2018-Jun-18 14:58N 53°48' E 008°07'510.9
2018-Jun-18 14:31N 53°51' E 008°00'7 0.7
2018-Jun-18 03:57N 53°54' E 007°49'0 0.1
2018-Jun-18 01:48N 53°54' E 007°49'0 0.0
2018-Jun-17 18:09N 53°54' E 007°49'0 0.0
2018-Jun-17 18:00N 53°54' E 007°49'0 0.0
2018-Jun-17 17:24N 53°54' E 007°49'0 0.0
2018-Jun-17 16:57N 53°54' E 007°49'0 0.1
2018-Jun-17 15:15N 53°54' E 007°49'0 0.1
2018-Jun-17 14:57N 53°54' E 007°49'0 0.0
2018-Jun-17 03:12N 53°55' E 007°49'0 0.2
2018-Jun-17 02:54N 53°54' E 007°49'0 0.1
2018-Jun-17 02:18N 53°54' E 007°49'0 0.0
2018-Jun-17 01:54N 53°54' E 007°49'0 0.1
2018-Jun-17 01:27N 53°54' E 007°49'0 0.0
2018-Jun-17 00:57N 53°54' E 007°49'0 0.0
2018-Jun-17 00:24N 53°54' E 007°49'73 3.0
2018-Jun-16 00:28N 53°38' E 005°50'4 8.2
2018-Jun-16 00:00N 53°37' E 005°44'4 8.4
2018-Jun-15 23:31N 53°36' E 005°37'4 8.7
2018-Jun-15 23:01N 53°34' E 005°30'4 8.8
2018-Jun-15 22:31N 53°33' E 005°23'5 9.0
2018-Jun-15 22:00N 53°31' E 005°15'5 9.4
2018-Jun-15 21:31N 53°30' E 005°08'5 9.5
2018-Jun-15 21:00N 53°28' E 005°01'5 9.5
2018-Jun-15 20:31N 53°26' E 004°53'7 9.8
2018-Jun-15 19:50N 53°24' E 004°43'4 9.7
2018-Jun-15 19:28N 53°20' E 004°40'5 9.8
2018-Jun-15 19:00N 53°16' E 004°37'510.3
2018-Jun-15 18:30N 53°12' E 004°32'510.4
2018-Jun-15 18:01N 53°08' E 004°28'510.4
2018-Jun-15 17:31N 53°03' E 004°23'510.6
2018-Jun-15 17:01N 52°59' E 004°19'510.4
2018-Jun-15 16:30N 52°54' E 004°16'510.3
2018-Jun-15 16:00N 52°49' E 004°12'510.2
2018-Jun-15 15:30N 52°45' E 004°07'510.2
2018-Jun-15 15:00N 52°42' E 004°01'5 9.9
2018-Jun-15 14:30N 52°38' E 003°55'5 9.5
2018-Jun-15 14:00N 52°35' E 003°50'5 9.1
2018-Jun-15 13:30N 52°31' E 003°44'4 8.7
2018-Jun-15 13:00N 52°28' E 003°40'5 8.4
2018-Jun-15 12:22N 52°24' E 003°34'3 8.2
2018-Jun-15 12:01N 52°22' E 003°30'4 7.9
2018-Jun-15 11:29N 52°19' E 003°26'4 7.7
2018-Jun-15 10:58N 52°16' E 003°21'3 7.5
2018-Jun-15 10:30N 52°14' E 003°17'4 7.3
2018-Jun-15 10:00N 52°11' E 003°13'4 7.1
2018-Jun-15 09:29N 52°08' E 003°09'3 7.0
2018-Jun-15 09:00N 52°06' E 003°05'5 7.0
2018-Jun-15 08:16N 52°02' E 002°59'6 7.3
2018-Jun-15 07:30N 51°58' E 002°53'4 7.8
2018-Jun-15 07:00N 51°55' E 002°49'5 8.3
2018-Jun-15 06:26N 51°52' E 002°44'4 8.7
2018-Jun-15 05:59N 51°49' E 002°40'4 9.0
2018-Jun-15 05:30N 51°45' E 002°35'6 9.4
2018-Jun-15 04:55N 51°41' E 002°30'4 9.6
2018-Jun-15 04:30N 51°38' E 002°26'510.0
2018-Jun-15 04:00N 51°34' E 002°21'510.2
2018-Jun-15 03:30N 51°30' E 002°16'510.4
2018-Jun-15 03:00N 51°25' E 002°12'510.4
2018-Jun-15 02:31N 51°21' E 002°09'510.4
2018-Jun-15 02:00N 51°16' E 002°05'510.6
2018-Jun-15 01:30N 51°12' E 001°59'611.3
2018-Jun-15 01:00N 51°09' E 001°52'510.9
2018-Jun-15 00:31N 51°05' E 001°46'3 5.9
2018-Jun-15 00:01N 51°04' E 001°50'3 5.8
2018-Jun-14 23:31N 51°03' E 001°54'4 8.4
2018-Jun-14 23:01N 51°03' E 002°01'5 8.9
2018-Jun-14 22:30N 51°03' E 002°08'6 9.8
2018-Jun-14 21:51N 51°04' E 002°18'2 5.2
2018-Jun-14 21:26N 51°03' E 002°21'1 1.5
2018-Jun-14 20:57N 51°03' E 002°20'3 2.6
2018-Jun-14 19:51N 51°02' E 002°16'0 0.0
2018-Jun-14 19:30N 51°02' E 002°16'0 0.0
2018-Jun-14 19:00N 51°02' E 002°16'0 0.0
2018-Jun-14 18:30N 51°02' E 002°16'0 0.0
2018-Jun-14 17:51N 51°02' E 002°16'0 0.0
2018-Jun-14 17:30N 51°02' E 002°16'0 0.0
2018-Jun-14 17:00N 51°02' E 002°16'0 0.0
2018-Jun-14 16:30N 51°02' E 002°16'0 0.0
2018-Jun-14 16:00N 51°02' E 002°16'0 0.0
2018-Jun-14 15:24N 51°02' E 002°16'0 0.0
2018-Jun-14 14:54N 51°02' E 002°16'0 0.0
2018-Jun-14 14:30N 51°02' E 002°16'0 0.0
2018-Jun-14 13:24N 51°02' E 002°16'0 0.0
2018-Jun-14 13:00N 51°02' E 002°16'0 0.0
2018-Jun-14 12:30N 51°02' E 002°16'0 0.0
2018-Jun-14 10:54N 51°02' E 002°16'0 0.0
2018-Jun-14 10:15N 51°02' E 002°16'0 0.0
2018-Jun-14 09:51N 51°02' E 002°16'0 0.0
2018-Jun-14 09:27N 51°02' E 002°16'0 0.0
2018-Jun-14 08:54N 51°02' E 002°16'0 0.0
2018-Jun-14 08:30N 51°02' E 002°16'0 0.0
2018-Jun-14 07:48N 51°02' E 002°16'0 0.0
2018-Jun-14 07:30N 51°02' E 002°16'0 0.0
2018-Jun-14 07:00N 51°02' E 002°16'0 0.0
2018-Jun-14 06:27N 51°02' E 002°16'1 1.3
2018-Jun-14 06:00N 51°03' E 002°16'3 6.7
2018-Jun-14 05:30N 51°03' E 002°21'0 0.5
2018-Jun-14 05:00N 51°03' E 002°21'3 6.3
2018-Jun-14 04:30N 51°04' E 002°16'510.4
2018-Jun-14 04:00N 51°03' E 002°08'611.2
2018-Jun-14 03:30N 51°02' E 001°59'611.5
2018-Jun-14 03:00N 51°02' E 001°50'3 5.7
2018-Jun-14 02:30N 51°02' E 001°46'3 5.3
2018-Jun-14 02:00N 51°01' E 001°42'3 6.0
2018-Jun-14 01:30N 50°59' E 001°38'3 6.1
2018-Jun-14 01:00N 50°57' E 001°35'3 6.6
2018-Jun-14 00:30N 50°55' E 001°31'4 8.3
2018-Jun-14 00:00N 50°51' E 001°28'5 9.3
2018-Jun-13 23:30N 50°47' E 001°26'5 9.1
2018-Jun-13 23:00N 50°43' E 001°23'612.9
2018-Jun-13 22:30N 50°38' E 001°15'713.3
2018-Jun-13 22:00N 50°33' E 001°08'713.1
2018-Jun-13 21:30N 50°29' E 001°00'713.4
2018-Jun-13 21:00N 50°27' E 000°50'713.7
2018-Jun-13 20:30N 50°25' E 000°40'713.9
2018-Jun-13 20:00N 50°23' E 000°29'1014.0
2018-Jun-13 19:17N 50°20' E 000°14'413.6
2018-Jun-13 19:00N 50°19' E 000°09'713.2
2018-Jun-13 18:30N 50°18' W 000°01'612.7
2018-Jun-13 18:00N 50°17' W 000°11'712.2
2018-Jun-13 17:24N 50°17' W 000°23'511.7
2018-Jun-13 17:00N 50°17' W 000°30'511.1
2018-Jun-13 16:31N 50°16' W 000°39'510.6
2018-Jun-13 16:01N 50°16' W 000°47'5 9.9
2018-Jun-13 15:30N 50°15' W 000°55'5 9.1
2018-Jun-13 15:00N 50°15' W 001°02'4 8.3
2018-Jun-13 14:30N 50°14' W 001°08'4 8.2
2018-Jun-13 14:00N 50°14' W 001°15'4 8.2
2018-Jun-13 13:30N 50°13' W 001°21'4 8.0
2018-Jun-13 13:00N 50°13' W 001°27'4 7.7
2018-Jun-13 12:30N 50°14' W 001°33'4 7.9
2018-Jun-13 12:01N 50°14' W 001°39'4 8.6
2018-Jun-13 11:30N 50°15' W 001°46'5 9.5
2018-Jun-13 11:00N 50°14' W 001°53'2511.7
2018-Jun-13 08:51N 50°14' W 002°33'712.7
2018-Jun-13 08:16N 50°13' W 002°44'312.6
2018-Jun-13 08:00N 50°13' W 002°49'612.7
2018-Jun-13 07:30N 50°12' W 002°59'612.8
2018-Jun-13 07:01N 50°11' W 003°09'612.9
2018-Jun-13 06:30N 50°09' W 003°19'612.7
2018-Jun-13 06:01N 50°08' W 003°28'612.6
2018-Jun-13 05:31N 50°06' W 003°38'612.6
2018-Jun-13 05:01N 50°05' W 003°47'612.4
2018-Jun-13 04:30N 50°03' W 003°57'612.2
2018-Jun-13 04:01N 50°01' W 004°06'612.1
2018-Jun-13 03:30N 49°60' W 004°15'612.0
2018-Jun-13 02:59N 49°58' W 004°24'611.9
2018-Jun-13 02:30N 49°57' W 004°33'56 9.9
2018-Jun-12 20:49N 49°59' W 006°00'413.1
2018-Jun-12 20:29N 50°03' W 005°60'613.1
2018-Jun-12 20:00N 50°10' W 005°60'713.3
2018-Jun-12 19:30N 50°16' W 005°60'121 9.3
2018-Jun-12 06:28N 52°17' W 005°47'3 6.9
2018-Jun-12 06:00N 52°21' W 005°46'25 8.0
2018-Jun-12 02:53N 52°45' W 005°41'4 9.8
2018-Jun-12 02:29N 52°49' W 005°40'610.3
2018-Jun-12 01:57N 52°55' W 005°38'510.7
2018-Jun-12 01:30N 52°59' W 005°37'711.6
2018-Jun-12 00:54N 53°06' W 005°38'511.4
2018-Jun-12 00:30N 53°11' W 005°41'611.1
2018-Jun-11 23:59N 53°16' W 005°44'511.2
2018-Jun-11 23:30N 53°21' W 005°47'26 9.7
2018-Jun-11 20:51N 53°43' W 006°10'3 7.3
2018-Jun-11 20:30N 53°43' W 006°14'2 0.1
2018-Jun-10 08:34N 53°43' W 006°18'0 0.4
2018-Jun-10 08:27N 53°43' W 006°18'2 3.7
2018-Jun-10 08:00N 53°44' W 006°15'2 3.4
2018-Jun-10 07:30N 53°43' W 006°13'1 1.1
2018-Jun-10 07:00N 53°44' W 006°12'0 0.1
2018-Jun-10 06:30N 53°44' W 006°12'0 0.1
2018-Jun-10 06:00N 53°44' W 006°12'0 0.0
2018-Jun-10 05:30N 53°44' W 006°12'0 0.0
2018-Jun-10 05:00N 53°44' W 006°12'0 0.0
2018-Jun-10 04:30N 53°44' W 006°12'0 0.0
2018-Jun-10 04:00N 53°44' W 006°12'0 0.0
2018-Jun-10 03:31N 53°44' W 006°12'0 0.0
2018-Jun-10 03:00N 53°44' W 006°12'0 0.0
2018-Jun-10 02:30N 53°44' W 006°12'0 0.0
2018-Jun-10 02:00N 53°44' W 006°12'0 0.1
2018-Jun-10 01:30N 53°44' W 006°12'0 0.1
2018-Jun-10 01:00N 53°44' W 006°12'0 0.0
2018-Jun-10 00:27N 53°44' W 006°12'0 0.0
2018-Jun-09 23:54N 53°44' W 006°12'0 0.0
2018-Jun-09 23:30N 53°44' W 006°12'0 0.0
2018-Jun-09 23:00N 53°44' W 006°12'0 0.0
2018-Jun-09 22:30N 53°44' W 006°12'0 0.0
2018-Jun-09 22:00N 53°44' W 006°12'0 0.0
2018-Jun-09 21:30N 53°44' W 006°12'0 0.0
2018-Jun-09 21:00N 53°44' W 006°12'0 0.0
2018-Jun-09 20:30N 53°44' W 006°12'0 0.2
2018-Jun-09 19:48N 53°44' W 006°12'0 0.1
2018-Jun-09 19:30N 53°44' W 006°12'0 0.0
2018-Jun-09 19:00N 53°44' W 006°12'0 0.0
2018-Jun-09 18:30N 53°44' W 006°12'0 0.0
2018-Jun-09 17:48N 53°44' W 006°12'0 0.0
2018-Jun-09 17:24N 53°44' W 006°12'0 0.0
2018-Jun-09 17:00N 53°44' W 006°12'0 0.0
2018-Jun-09 16:30N 53°44' W 006°12'0 0.0
2018-Jun-09 16:00N 53°44' W 006°12'0 0.0
2018-Jun-09 15:00N 53°44' W 006°12'0 0.0
2018-Jun-09 14:30N 53°44' W 006°12'0 0.0
2018-Jun-09 14:00N 53°44' W 006°12'0 0.1
2018-Jun-09 13:24N 53°44' W 006°12'0 0.1
2018-Jun-09 13:00N 53°44' W 006°12'0 0.0
2018-Jun-09 12:30N 53°44' W 006°12'0 0.0
2018-Jun-09 11:54N 53°44' W 006°12'0 0.0
2018-Jun-09 11:30N 53°44' W 006°12'0 0.0
2018-Jun-09 11:00N 53°44' W 006°12'0 0.1
2018-Jun-09 10:30N 53°44' W 006°12'0 0.0
2018-Jun-09 10:00N 53°44' W 006°12'0 0.0
2018-Jun-09 09:30N 53°44' W 006°12'0 0.0
2018-Jun-09 09:00N 53°44' W 006°12'0 0.0
2018-Jun-09 08:27N 53°44' W 006°12'0 0.0
2018-Jun-09 08:00N 53°44' W 006°12'0 0.0
2018-Jun-09 07:30N 53°44' W 006°12'0 0.0
2018-Jun-09 07:00N 53°44' W 006°12'0 0.1
2018-Jun-09 06:30N 53°44' W 006°12'0 0.1
2018-Jun-09 06:00N 53°44' W 006°12'0 0.0
2018-Jun-09 05:06N 53°44' W 006°12'0 0.0
2018-Jun-09 04:57N 53°44' W 006°12'0 0.0
2018-Jun-09 04:30N 53°44' W 006°12'0 0.0
2018-Jun-09 04:00N 53°44' W 006°12'0 0.0
2018-Jun-09 03:30N 53°44' W 006°12'0 0.0
2018-Jun-09 03:00N 53°44' W 006°12'0 0.0
2018-Jun-09 02:30N 53°44' W 006°12'0 0.1
2018-Jun-09 02:00N 53°44' W 006°12'0 0.1
2018-Jun-09 01:30N 53°44' W 006°12'0 0.1
2018-Jun-09 01:00N 53°44' W 006°12'0 0.0
2018-Jun-09 00:30N 53°44' W 006°12'0 0.0
2018-Jun-08 23:57N 53°44' W 006°12'0 0.0
2018-Jun-08 23:30N 53°44' W 006°12'0 0.0
2018-Jun-08 23:00N 53°44' W 006°12'0 0.0
2018-Jun-08 22:12N 53°44' W 006°12'0 0.0
2018-Jun-08 22:00N 53°44' W 006°12'0 0.0
2018-Jun-08 21:30N 53°44' W 006°12'0 0.0
2018-Jun-08 20:54N 53°44' W 006°12'0 0.0
2018-Jun-08 20:30N 53°44' W 006°12'0 0.0
2018-Jun-08 20:00N 53°44' W 006°12'0 0.0
2018-Jun-08 19:30N 53°44' W 006°12'0 0.0
2018-Jun-08 19:00N 53°44' W 006°12'0 0.0
2018-Jun-08 18:24N 53°44' W 006°12'0 0.0
2018-Jun-08 18:00N 53°44' W 006°12'0 0.0
2018-Jun-08 17:30N 53°44' W 006°12'0 0.0
2018-Jun-08 16:57N 53°44' W 006°12'  

Dump ship's entire track history